createdAt,value
2023-03-05T00:02:13.530Z,0.62
2023-03-05T00:05:27.115Z,0.57
2023-03-05T00:08:37.088Z,0.40
2023-03-05T00:11:48.539Z,0.50
2023-03-05T00:14:57.576Z,0.78
2023-03-05T00:18:10.170Z,0.40
2023-03-05T00:21:27.447Z,0.62
2023-03-05T00:24:40.253Z,0.40
2023-03-05T00:27:51.160Z,0.72
2023-03-05T00:31:03.547Z,0.35
2023-03-05T00:34:15.475Z,0.53
2023-03-05T00:37:24.227Z,0.85
2023-03-05T00:40:37.359Z,0.53
2023-03-05T00:43:48.928Z,1.35
2023-03-05T00:46:58.870Z,0.40
2023-03-05T00:50:10.473Z,0.68
2023-03-05T00:53:20.620Z,0.40
2023-03-05T00:56:31.510Z,0.57
2023-03-05T00:59:42.235Z,0.57
2023-03-05T01:02:56.659Z,0.70
2023-03-05T01:06:07.532Z,0.70
2023-03-05T01:09:19.998Z,0.90
2023-03-05T01:12:29.389Z,0.40
2023-03-05T01:15:40.919Z,0.53
2023-03-05T01:18:51.198Z,0.80
2023-03-05T01:22:01.123Z,0.62
2023-03-05T01:25:13.033Z,0.68
2023-03-05T01:28:25.630Z,0.82
2023-03-05T01:31:36.976Z,0.40
2023-03-05T01:34:49.739Z,0.68
2023-03-05T01:38:00.241Z,0.90
2023-03-05T01:41:09.712Z,0.65
2023-03-05T01:44:29.052Z,0.60
2023-03-05T01:47:40.666Z,0.55
2023-03-05T01:50:52.155Z,0.75
2023-03-05T01:54:02.964Z,0.75
2023-03-05T01:57:16.004Z,0.70
2023-03-05T02:00:30.541Z,1.35
2023-03-05T02:03:42.884Z,0.72
2023-03-05T02:06:53.586Z,0.93
2023-03-05T02:10:04.497Z,0.95
2023-03-05T02:13:13.119Z,0.60
2023-03-05T02:16:21.183Z,0.90
2023-03-05T02:19:33.648Z,0.80
2023-03-05T02:22:44.395Z,0.60
2023-03-05T02:25:55.051Z,0.75
2023-03-05T02:29:06.181Z,0.62
2023-03-05T02:32:18.740Z,0.80
2023-03-05T02:35:28.710Z,1.12
2023-03-05T02:38:40.140Z,0.98
2023-03-05T02:41:50.969Z,1.20
2023-03-05T02:45:00.184Z,0.68
2023-03-05T02:48:12.732Z,1.25
2023-03-05T02:51:24.257Z,0.72
2023-03-05T02:54:37.497Z,1.17
2023-03-05T02:57:47.514Z,0.80
2023-03-05T03:00:57.985Z,0.72
2023-03-05T03:04:10.248Z,1.02
2023-03-05T03:07:21.758Z,0.90
2023-03-05T03:10:31.661Z,0.85
2023-03-05T03:13:43.339Z,1.00
2023-03-05T03:16:53.388Z,0.82
2023-03-05T03:20:06.669Z,0.78
2023-03-05T03:26:27.935Z,1.02
2023-03-05T03:29:40.324Z,1.20
2023-03-05T03:32:50.541Z,0.77
2023-03-05T03:35:58.784Z,1.40
2023-03-05T03:39:11.700Z,1.50
2023-03-05T03:42:24.442Z,1.05
2023-03-05T03:45:36.454Z,0.80
2023-03-05T03:48:47.144Z,0.98
2023-03-05T03:51:56.301Z,1.00
2023-03-05T03:55:07.940Z,0.88
2023-03-05T03:58:18.636Z,0.90
2023-03-05T04:01:32.002Z,1.60
2023-03-05T04:07:51.697Z,0.60
2023-03-05T04:11:04.773Z,0.85
2023-03-05T04:14:12.855Z,1.10
2023-03-05T04:17:24.905Z,0.90
2023-03-05T04:20:37.391Z,0.70
2023-03-05T04:23:46.292Z,1.57
2023-03-05T04:26:56.187Z,1.65
2023-03-05T04:30:06.897Z,0.82
2023-03-05T04:33:18.528Z,1.00
2023-03-05T04:36:31.275Z,1.35
2023-03-05T04:39:41.246Z,0.90
2023-03-05T04:42:51.176Z,1.05
2023-03-05T04:46:01.851Z,0.80
2023-03-05T04:49:13.262Z,0.93
2023-03-05T04:52:20.608Z,0.70
2023-03-05T04:55:30.670Z,0.70
2023-03-05T04:58:39.652Z,1.15
2023-03-05T05:01:50.363Z,0.93
2023-03-05T05:05:00.260Z,0.88
2023-03-05T05:08:11.189Z,1.55
2023-03-05T05:11:24.322Z,1.05
2023-03-05T05:14:34.975Z,1.55
2023-03-05T05:17:45.016Z,1.02
2023-03-05T05:20:58.371Z,0.90
2023-03-05T05:27:17.687Z,1.20
2023-03-05T05:30:28.571Z,1.00
2023-03-05T05:33:38.367Z,1.02
2023-03-05T05:36:51.803Z,1.15
2023-03-05T05:40:00.697Z,1.10
2023-03-05T05:43:09.297Z,1.17
2023-03-05T05:46:20.390Z,1.45
2023-03-05T05:49:32.100Z,0.62
2023-03-05T05:52:42.982Z,0.93
2023-03-05T05:55:52.873Z,1.00
2023-03-05T05:59:01.401Z,1.02
2023-03-05T06:02:15.771Z,1.12
2023-03-05T06:05:27.896Z,0.90
2023-03-05T06:08:40.441Z,1.47
2023-03-05T06:11:52.896Z,1.13
2023-03-05T06:15:05.726Z,1.35
2023-03-05T06:18:15.772Z,1.20
2023-03-05T06:21:24.531Z,1.25
2023-03-05T06:24:33.423Z,0.85
2023-03-05T06:27:43.521Z,1.12
2023-03-05T06:30:53.579Z,1.55
2023-03-05T06:34:05.542Z,0.90
2023-03-05T06:37:16.948Z,1.02
2023-03-05T06:40:29.094Z,0.90
2023-03-05T06:43:39.163Z,0.85
2023-03-05T06:46:49.943Z,1.07
2023-03-05T06:49:58.021Z,1.10
2023-03-05T06:53:08.918Z,1.32
2023-03-05T06:56:19.110Z,1.20
2023-03-05T06:59:32.300Z,1.57
2023-03-05T07:02:42.033Z,1.20
2023-03-05T07:05:52.848Z,1.52
2023-03-05T07:09:03.786Z,1.30
2023-03-05T07:12:17.237Z,0.90
2023-03-05T07:18:32.779Z,1.15
2023-03-05T07:21:41.722Z,0.98
2023-03-05T07:24:51.060Z,1.20
2023-03-05T07:28:01.969Z,1.45
2023-03-05T07:31:13.681Z,1.15
2023-03-05T07:34:27.165Z,1.25
2023-03-05T07:37:39.683Z,0.88
2023-03-05T07:40:51.322Z,1.15
2023-03-05T07:44:01.529Z,1.22
2023-03-05T07:47:10.298Z,1.07
2023-03-05T07:50:22.648Z,1.37
2023-03-05T07:53:32.265Z,1.13
2023-03-05T08:00:00.672Z,1.50
2023-03-05T08:03:13.929Z,1.07
2023-03-05T08:06:26.614Z,1.32
2023-03-05T08:09:35.714Z,1.40
2023-03-05T08:12:46.753Z,1.22
2023-03-05T08:15:58.228Z,1.05
2023-03-05T08:19:09.830Z,1.02
2023-03-05T08:22:21.920Z,1.32
2023-03-05T08:25:34.045Z,1.85
2023-03-05T08:28:44.746Z,1.55
2023-03-05T08:31:54.188Z,0.80
2023-03-05T08:35:04.858Z,1.32
2023-03-05T08:38:16.503Z,1.22
2023-03-05T08:41:27.784Z,1.10
2023-03-05T08:44:38.962Z,1.15
2023-03-05T08:47:49.734Z,0.72
2023-03-05T08:51:01.249Z,0.90
2023-03-05T08:54:11.812Z,1.30
2023-03-05T08:57:22.404Z,1.12
2023-03-05T09:00:32.542Z,1.30
2023-03-05T09:03:44.214Z,0.90
2023-03-05T09:06:55.099Z,1.40
2023-03-05T09:10:05.904Z,0.72
2023-03-05T09:13:15.776Z,1.07
2023-03-05T09:16:26.371Z,1.30
2023-03-05T09:19:35.676Z,0.90
2023-03-05T09:22:46.029Z,1.52
2023-03-05T09:25:59.958Z,1.05
2023-03-05T09:29:13.310Z,1.05
2023-03-05T09:32:25.125Z,1.20
2023-03-05T09:35:35.591Z,1.77
2023-03-05T09:38:43.045Z,1.70
2023-03-05T09:42:21.185Z,0.88
2023-03-05T09:45:33.913Z,1.62
2023-03-05T09:48:53.416Z,1.57
2023-03-05T09:52:08.558Z,1.17
2023-03-05T09:55:20.957Z,1.25
2023-03-05T09:58:39.291Z,1.20
2023-03-05T10:01:52.505Z,0.65
2023-03-05T10:05:06.188Z,1.27
2023-03-05T10:08:19.708Z,1.20
2023-03-05T10:15:15.186Z,2.10
2023-03-05T10:18:28.699Z,1.65
2023-03-05T10:21:41.076Z,1.82
2023-03-05T10:24:56.546Z,1.20
2023-03-05T10:28:08.329Z,0.88
2023-03-05T10:31:41.131Z,1.22
2023-03-05T10:35:10.167Z,1.85
2023-03-05T10:38:36.965Z,1.40
2023-03-05T10:41:49.439Z,1.77
2023-03-05T10:45:00.206Z,1.10
2023-03-05T10:48:17.405Z,1.32
2023-03-05T10:51:29.001Z,1.72
2023-03-05T10:54:41.430Z,1.40
2023-03-05T10:57:52.994Z,1.67
2023-03-05T11:01:08.809Z,1.15
2023-03-05T11:04:30.624Z,1.37
2023-03-05T11:07:43.316Z,1.10
2023-03-05T11:10:54.682Z,1.62
2023-03-05T11:14:05.796Z,1.32
2023-03-05T11:17:38.687Z,1.72
2023-03-05T11:20:51.168Z,1.67
2023-03-05T11:24:16.429Z,1.43
2023-03-05T11:27:30.043Z,1.35
2023-03-05T11:30:40.579Z,1.57
2023-03-05T11:34:03.771Z,1.47
2023-03-05T11:37:19.150Z,1.25
2023-03-05T11:40:31.443Z,1.72
2023-03-05T11:43:42.244Z,1.27
2023-03-05T11:46:55.469Z,1.12
2023-03-05T11:50:08.966Z,1.30
2023-03-05T11:53:20.524Z,1.07
2023-03-05T11:56:34.394Z,1.55
2023-03-05T11:59:45.262Z,1.32
2023-03-05T12:02:57.110Z,1.25
2023-03-05T12:06:09.541Z,1.52
2023-03-05T12:09:25.622Z,1.67
2023-03-05T12:12:40.892Z,1.22
2023-03-05T12:15:57.541Z,1.42
2023-03-05T12:19:18.431Z,0.98
2023-03-05T12:22:28.768Z,1.30
2023-03-05T12:25:39.592Z,1.67
2023-03-05T12:29:17.570Z,0.98
2023-03-05T12:33:08.600Z,1.30
2023-03-05T12:36:37.828Z,1.32
2023-03-05T12:39:55.682Z,1.05
2023-03-05T12:43:05.348Z,0.82
2023-03-05T12:46:32.195Z,1.47
2023-03-05T12:49:43.361Z,1.40
2023-03-05T12:52:54.806Z,1.32
2023-03-05T12:56:12.713Z,0.90
2023-03-05T12:59:22.293Z,1.22
2023-03-05T13:02:35.662Z,1.20
2023-03-05T13:09:01.849Z,1.27
2023-03-05T13:12:15.030Z,1.30
2023-03-05T13:15:27.238Z,1.27
2023-03-05T13:18:38.857Z,1.05
2023-03-05T13:21:52.802Z,1.17
2023-03-05T13:25:17.989Z,1.35
2023-03-05T13:28:31.455Z,1.70
2023-03-05T13:31:43.408Z,1.37
2023-03-05T13:34:52.969Z,1.77
2023-03-05T13:38:04.450Z,1.50
2023-03-05T13:41:24.350Z,2.20
2023-03-05T13:44:33.419Z,1.32
2023-03-05T13:47:42.568Z,1.47
2023-03-05T13:50:53.913Z,2.47
2023-03-05T13:54:09.277Z,2.42
2023-03-05T13:57:38.261Z,2.08
2023-03-05T14:00:51.466Z,1.50
2023-03-05T14:04:03.077Z,2.58
2023-03-05T14:07:20.979Z,5.15
2023-03-05T14:10:38.271Z,7.47
2023-03-05T14:13:46.385Z,6.78
2023-03-05T14:16:57.145Z,6.75
2023-03-05T14:20:28.055Z,6.50
2023-03-05T14:23:45.353Z,6.03
2023-03-05T14:26:59.244Z,6.00
2023-03-05T14:30:08.296Z,6.25
2023-03-05T14:33:16.366Z,4.42
2023-03-05T14:36:32.609Z,5.10
2023-03-05T14:39:50.635Z,3.60
2023-03-05T14:43:01.843Z,4.08
2023-03-05T14:46:14.498Z,4.40
2023-03-05T14:49:24.371Z,4.50
2023-03-05T14:52:36.224Z,4.00
2023-03-05T14:55:49.253Z,4.30
2023-03-05T14:58:58.105Z,3.37
2023-03-05T15:02:08.615Z,4.78
2023-03-05T15:05:22.037Z,5.70
2023-03-05T15:08:35.365Z,4.22
2023-03-05T15:14:53.248Z,2.75
2023-03-05T15:18:03.156Z,3.37
2023-03-05T15:21:12.483Z,3.62
2023-03-05T15:24:24.299Z,2.90
2023-03-05T15:27:36.991Z,2.52
2023-03-05T15:30:48.620Z,2.22
2023-03-05T15:33:59.306Z,2.80
2023-03-05T15:37:11.341Z,3.05
2023-03-05T15:40:23.419Z,2.62
2023-03-05T15:43:33.938Z,2.70
2023-03-05T15:46:44.913Z,3.02
2023-03-05T15:49:54.024Z,2.40
2023-03-05T15:53:05.062Z,2.08
2023-03-05T15:56:20.451Z,3.20
2023-03-05T15:59:31.359Z,2.55
2023-03-05T16:02:41.233Z,4.58
2023-03-05T16:05:52.630Z,6.83
2023-03-05T16:09:02.072Z,5.35
2023-03-05T16:12:16.877Z,3.87
2023-03-05T16:15:29.476Z,3.35
2023-03-05T16:21:46.795Z,3.52
2023-03-05T16:24:57.535Z,3.55
2023-03-05T16:28:11.033Z,3.85
2023-03-05T16:31:20.744Z,14.87
2023-03-05T16:34:28.158Z,9.08
2023-03-05T16:37:43.044Z,9.83
2023-03-05T16:41:07.433Z,9.63
2023-03-05T16:44:07.355Z,12.10
2023-03-05T16:47:15.605Z,11.43
2023-03-05T16:50:24.686Z,9.45
2023-03-05T16:53:34.403Z,10.93
2023-03-05T16:56:47.722Z,9.78
2023-03-05T16:59:58.312Z,11.00
2023-03-05T17:03:08.322Z,10.58
2023-03-05T17:06:24.714Z,9.80
2023-03-05T17:09:36.301Z,11.70
2023-03-05T17:12:45.097Z,9.25
2023-03-05T17:15:56.320Z,8.98
2023-03-05T17:19:06.840Z,8.60
2023-03-05T17:22:18.414Z,8.10
2023-03-05T17:25:28.589Z,9.40
2023-03-05T17:28:40.972Z,9.18
2023-03-05T17:31:54.621Z,10.48
2023-03-05T17:35:04.449Z,12.98
2023-03-05T17:38:15.715Z,10.95
2023-03-05T17:41:24.924Z,10.10
2023-03-05T17:44:34.667Z,11.43
2023-03-05T17:47:47.016Z,10.78
2023-03-05T17:50:56.995Z,9.17
2023-03-05T17:54:08.165Z,10.38
2023-03-05T17:57:18.966Z,11.73
2023-03-05T18:00:28.523Z,10.75
2023-03-05T18:03:37.034Z,8.25
2023-03-05T18:06:47.413Z,9.90
2023-03-05T18:09:56.577Z,10.08
2023-03-05T18:13:06.462Z,10.93
2023-03-05T18:16:20.681Z,15.88
2023-03-05T18:19:30.144Z,12.70
2023-03-05T18:22:40.016Z,11.73
2023-03-05T18:25:51.441Z,10.15
2023-03-05T18:29:01.729Z,12.78
2023-03-05T18:32:13.135Z,10.98
2023-03-05T18:35:23.957Z,8.40
2023-03-05T18:38:35.774Z,11.12
2023-03-05T18:41:45.454Z,11.90
2023-03-05T18:44:56.599Z,9.60
2023-03-05T18:48:08.110Z,11.00
2023-03-05T18:51:22.398Z,11.40
2023-03-05T18:54:36.057Z,12.65
2023-03-05T18:57:48.772Z,11.75
2023-03-05T19:01:00.064Z,14.87
2023-03-05T19:04:11.753Z,13.95
2023-03-05T19:07:24.039Z,9.20
2023-03-05T19:10:34.444Z,11.73
2023-03-05T19:13:46.529Z,12.00
2023-03-05T19:16:58.038Z,9.93
2023-03-05T19:20:09.991Z,10.50
2023-03-05T19:23:19.913Z,13.43
2023-03-05T19:26:33.375Z,11.37
2023-03-05T19:29:42.401Z,12.78
2023-03-05T19:32:54.503Z,11.38
2023-03-05T19:36:06.002Z,11.78
2023-03-05T19:39:16.602Z,12.55
2023-03-05T19:42:24.693Z,10.08
2023-03-05T19:45:37.599Z,12.05
2023-03-05T19:48:49.568Z,12.28
2023-03-05T19:52:00.235Z,12.45
2023-03-05T19:55:12.304Z,11.45
2023-03-05T19:58:22.267Z,12.28
2023-03-05T20:01:33.563Z,10.20
2023-03-05T20:04:46.812Z,11.10
2023-03-05T20:11:08.613Z,11.28
2023-03-05T20:14:21.212Z,13.20
2023-03-05T20:17:35.391Z,13.05
2023-03-05T20:20:46.240Z,14.15
2023-03-05T20:23:55.463Z,11.63
2023-03-05T20:27:06.453Z,12.00
2023-03-05T20:30:20.207Z,11.40
2023-03-05T20:33:34.626Z,9.13
2023-03-05T20:36:44.349Z,11.43
2023-03-05T20:39:55.300Z,11.25
2023-03-05T20:43:06.057Z,10.13
2023-03-05T20:46:22.709Z,11.73
2023-03-05T20:49:34.148Z,8.80
2023-03-05T20:52:42.795Z,12.35
2023-03-05T20:55:55.419Z,14.18
2023-03-05T20:59:07.466Z,12.40
2023-03-05T21:02:17.311Z,10.95
2023-03-05T21:05:29.279Z,10.00
2023-03-05T21:08:43.108Z,13.30
2023-03-05T21:11:53.244Z,9.68
2023-03-05T21:15:05.420Z,9.03
2023-03-05T21:18:16.919Z,10.28
2023-03-05T21:21:27.817Z,9.73
2023-03-05T21:25:21.641Z,10.48
2023-03-05T21:28:32.290Z,11.15
2023-03-05T21:31:43.767Z,11.03
2023-03-05T21:34:55.109Z,10.60
2023-03-05T21:38:07.675Z,8.83
2023-03-05T21:41:17.000Z,9.53
2023-03-05T21:44:28.772Z,7.58
2023-03-05T21:47:40.256Z,8.43
2023-03-05T21:50:48.717Z,9.95
2023-03-05T21:54:01.278Z,9.40
2023-03-05T21:57:14.047Z,8.20
2023-03-05T22:00:26.071Z,8.83
2023-03-05T22:03:37.746Z,9.33
2023-03-05T22:06:48.631Z,9.93
2023-03-05T22:10:05.131Z,8.95
2023-03-05T22:13:18.342Z,9.58
2023-03-05T22:16:28.368Z,7.92
2023-03-05T22:19:39.716Z,10.93
2023-03-05T22:22:52.418Z,8.25
2023-03-05T22:26:06.203Z,8.60
2023-03-05T22:29:17.466Z,6.85
2023-03-05T22:32:26.446Z,6.90
2023-03-05T22:35:38.129Z,8.75
2023-03-05T22:38:46.484Z,7.87
2023-03-05T22:41:56.641Z,8.15
2023-03-05T22:45:07.210Z,7.75
2023-03-05T22:48:17.342Z,8.63
2023-03-05T22:51:28.264Z,6.62
2023-03-05T22:54:37.485Z,6.40
2023-03-05T22:57:49.225Z,6.58
2023-03-05T23:00:59.127Z,8.15
2023-03-05T23:04:55.620Z,6.60
2023-03-05T23:08:08.520Z,6.42
2023-03-05T23:11:17.713Z,6.35
2023-03-05T23:14:28.806Z,6.87
2023-03-05T23:17:41.388Z,6.37
2023-03-05T23:20:51.590Z,6.08
2023-03-05T23:24:00.806Z,6.20
2023-03-05T23:27:11.937Z,5.67
2023-03-05T23:30:22.520Z,5.80
2023-03-05T23:33:33.317Z,8.23
2023-03-05T23:36:45.735Z,5.80
2023-03-05T23:39:55.478Z,5.40
2023-03-05T23:43:06.226Z,5.92
2023-03-05T23:46:17.594Z,6.42
2023-03-05T23:49:29.053Z,6.25
2023-03-05T23:52:41.414Z,5.78
2023-03-05T23:55:49.443Z,5.50
2023-03-05T23:58:59.582Z,6.83
